createdAt,value
2022-08-21T00:00:20.379Z,7.60
2022-08-21T00:01:20.386Z,8.10
2022-08-21T00:02:20.525Z,8.20
2022-08-21T00:03:20.411Z,7.90
2022-08-21T00:04:22.036Z,8.20
2022-08-21T00:05:20.366Z,8.00
2022-08-21T00:06:20.366Z,8.00
2022-08-21T00:07:20.363Z,8.10
2022-08-21T00:08:20.363Z,7.60
2022-08-21T00:09:20.353Z,7.70
2022-08-21T00:10:20.354Z,8.00
2022-08-21T00:11:20.351Z,8.00
2022-08-21T00:12:20.358Z,7.90
2022-08-21T00:13:20.351Z,7.80
2022-08-21T00:14:20.352Z,8.00
2022-08-21T00:15:20.341Z,7.60
2022-08-21T00:16:20.340Z,7.90
2022-08-21T00:17:20.336Z,8.20
2022-08-21T00:18:20.335Z,8.00
2022-08-21T00:19:20.332Z,8.50
2022-08-21T00:20:20.332Z,8.30
2022-08-21T00:21:20.326Z,8.20
2022-08-21T00:22:20.337Z,8.10
2022-08-21T00:23:20.327Z,8.10
2022-08-21T00:24:20.323Z,8.50
2022-08-21T00:25:24.291Z,8.40
2022-08-21T00:26:20.326Z,8.70
2022-08-21T00:27:20.312Z,8.90
2022-08-21T00:28:20.312Z,9.30
2022-08-21T00:29:20.310Z,8.70
2022-08-21T00:30:22.870Z,8.80
2022-08-21T00:31:20.305Z,9.00
2022-08-21T00:32:20.312Z,9.30
2022-08-21T00:33:20.298Z,9.30
2022-08-21T00:34:20.295Z,9.60
2022-08-21T00:35:20.290Z,9.10
2022-08-21T00:36:20.291Z,9.70
2022-08-21T00:37:20.292Z,9.40
2022-08-21T00:38:20.289Z,9.40
2022-08-21T00:39:20.286Z,9.70
2022-08-21T00:40:20.337Z,9.80
2022-08-21T00:41:37.067Z,9.80
2022-08-21T00:42:20.288Z,9.30
2022-08-21T00:43:20.272Z,9.50
2022-08-21T00:44:20.269Z,9.70
2022-08-21T00:45:20.268Z,9.90
2022-08-21T00:46:20.265Z,9.70
2022-08-21T00:47:20.269Z,9.90
2022-08-21T00:48:20.261Z,9.90
2022-08-21T00:49:20.256Z,10.10
2022-08-21T00:50:21.963Z,10.00
2022-08-21T00:51:20.249Z,10.80
2022-08-21T00:52:20.255Z,10.60
2022-08-21T00:53:20.277Z,10.40
2022-08-21T00:54:20.246Z,10.10
2022-08-21T00:55:20.239Z,10.60
2022-08-21T00:56:20.238Z,10.60
2022-08-21T00:57:20.235Z,10.40
2022-08-21T00:58:20.232Z,11.00
2022-08-21T00:59:20.233Z,11.20
2022-08-21T01:00:20.227Z,10.90
2022-08-21T01:03:02.955Z,11.50
2022-08-21T01:04:02.942Z,10.70
2022-08-21T01:05:55.902Z,10.50
2022-08-21T01:06:55.881Z,11.10
2022-08-21T01:08:49.109Z,11.30
2022-08-21T01:09:48.989Z,11.20
2022-08-21T01:11:54.054Z,11.50
2022-08-21T01:12:53.696Z,11.20
2022-08-21T01:13:53.645Z,11.00
2022-08-21T01:14:53.643Z,10.70
2022-08-21T01:15:53.642Z,10.90
2022-08-21T01:16:53.641Z,10.70
2022-08-21T01:17:53.635Z,10.50
2022-08-21T01:18:53.632Z,10.00
2022-08-21T01:19:53.627Z,10.30
2022-08-21T01:20:53.631Z,9.90
2022-08-21T01:21:53.622Z,9.70
2022-08-21T01:22:53.622Z,10.20
2022-08-21T01:23:53.614Z,10.20
2022-08-21T01:24:53.615Z,10.40
2022-08-21T01:25:53.613Z,9.90
2022-08-21T01:26:53.616Z,9.80
2022-08-21T01:27:53.606Z,9.70
2022-08-21T01:28:53.609Z,9.40
2022-08-21T01:29:53.601Z,9.30
2022-08-21T01:30:53.600Z,9.10
2022-08-21T01:31:53.595Z,8.60
2022-08-21T01:32:53.597Z,8.60
2022-08-21T01:33:53.587Z,8.30
2022-08-21T01:34:53.619Z,8.30
2022-08-21T01:35:53.590Z,8.20
2022-08-21T01:36:53.578Z,8.00
2022-08-21T01:37:53.577Z,7.40
2022-08-21T01:38:53.575Z,7.20
2022-08-21T01:39:53.621Z,6.90
2022-08-21T01:40:53.572Z,6.80
2022-08-21T01:41:53.570Z,6.70
2022-08-21T01:42:53.562Z,6.90
2022-08-21T01:43:53.561Z,6.90
2022-08-21T01:44:54.791Z,6.80
2022-08-21T01:45:53.562Z,6.20
2022-08-21T01:46:53.553Z,5.90
2022-08-21T01:47:53.544Z,6.40
2022-08-21T01:48:53.547Z,6.20
2022-08-21T01:49:53.540Z,6.30
2022-08-21T01:50:56.856Z,6.20
2022-08-21T01:51:53.534Z,5.80
2022-08-21T01:52:53.529Z,5.50
2022-08-21T01:53:53.529Z,5.30
2022-08-21T01:54:55.484Z,5.50
2022-08-21T01:55:53.526Z,5.60
2022-08-21T01:56:53.521Z,5.50
2022-08-21T01:57:53.588Z,5.60
2022-08-21T01:58:53.512Z,5.50
2022-08-21T01:59:53.511Z,5.90
2022-08-21T02:00:53.554Z,5.60
2022-08-21T02:01:53.503Z,5.90
2022-08-21T02:02:53.499Z,5.40
2022-08-21T02:03:53.502Z,5.70
2022-08-21T02:04:53.496Z,5.90
2022-08-21T02:05:53.489Z,5.80
2022-08-21T02:06:53.487Z,5.50
2022-08-21T02:07:53.484Z,5.50
2022-08-21T02:08:53.484Z,6.00
2022-08-21T02:09:53.478Z,5.90
2022-08-21T02:10:53.475Z,6.00
2022-08-21T02:11:53.472Z,5.70
2022-08-21T02:12:53.469Z,5.90
2022-08-21T02:13:53.466Z,6.20
2022-08-21T02:14:53.463Z,5.80
2022-08-21T02:15:53.460Z,5.90
2022-08-21T02:16:53.459Z,5.90
2022-08-21T02:17:53.455Z,6.10
2022-08-21T02:18:53.449Z,6.20
2022-08-21T02:19:53.445Z,6.30
2022-08-21T02:20:55.268Z,6.10
2022-08-21T02:21:53.438Z,6.00
2022-08-21T02:22:53.440Z,6.00
2022-08-21T02:23:53.436Z,6.00
2022-08-21T02:24:54.371Z,5.80
2022-08-21T02:25:53.425Z,5.40
2022-08-21T02:26:53.425Z,5.80
2022-08-21T02:27:53.422Z,5.50
2022-08-21T02:28:53.419Z,6.00
2022-08-21T02:29:53.413Z,5.60
2022-08-21T02:30:53.411Z,5.90
2022-08-21T02:31:53.406Z,5.90
2022-08-21T02:32:53.408Z,5.80
2022-08-21T02:33:53.402Z,5.70
2022-08-21T02:34:53.404Z,5.70
2022-08-21T02:35:53.396Z,5.30
2022-08-21T02:36:58.738Z,5.70
2022-08-21T02:37:53.388Z,5.60
2022-08-21T02:38:53.385Z,5.50
2022-08-21T02:39:53.468Z,5.20
2022-08-21T02:40:53.380Z,5.40
2022-08-21T02:41:53.377Z,5.50
2022-08-21T02:42:53.373Z,5.50
2022-08-21T02:43:53.374Z,5.40
2022-08-21T02:44:53.369Z,5.30
2022-08-21T02:45:53.365Z,5.50
2022-08-21T02:46:53.361Z,5.70
2022-08-21T02:47:53.352Z,5.80
2022-08-21T02:48:53.350Z,5.20
2022-08-21T02:49:53.352Z,5.30
2022-08-21T02:50:53.345Z,5.10
2022-08-21T02:51:53.346Z,5.40
2022-08-21T02:52:54.914Z,4.90
2022-08-21T02:53:53.334Z,5.10
2022-08-21T02:54:53.332Z,5.00
2022-08-21T02:55:53.328Z,5.20
2022-08-21T02:56:53.326Z,5.10
2022-08-21T02:57:53.318Z,5.20
2022-08-21T02:58:54.058Z,5.10
2022-08-21T02:59:53.314Z,5.00
2022-08-21T03:00:53.311Z,5.00
2022-08-21T03:01:53.332Z,5.00
2022-08-21T03:02:53.306Z,4.80
2022-08-21T03:03:53.304Z,4.60
2022-08-21T03:04:53.298Z,4.90
2022-08-21T03:05:53.295Z,5.10
2022-08-21T03:06:53.292Z,5.00
2022-08-21T03:07:53.288Z,5.10
2022-08-21T03:08:53.283Z,5.10
2022-08-21T03:09:55.480Z,5.10
2022-08-21T03:10:53.282Z,4.80
2022-08-21T03:11:53.273Z,5.00
2022-08-21T03:12:53.270Z,4.90
2022-08-21T03:13:53.271Z,4.90
2022-08-21T03:14:53.264Z,5.00
2022-08-21T03:15:53.260Z,4.70
2022-08-21T03:16:53.255Z,4.50
2022-08-21T03:17:53.250Z,4.60
2022-08-21T03:18:53.246Z,4.60
2022-08-21T03:19:53.249Z,4.60
2022-08-21T03:20:53.242Z,4.50
2022-08-21T03:21:53.241Z,4.60
2022-08-21T03:22:53.331Z,4.70
2022-08-21T03:23:53.234Z,4.80
2022-08-21T03:24:53.238Z,4.50
2022-08-21T03:25:53.734Z,4.70
2022-08-21T03:26:53.222Z,4.60
2022-08-21T03:27:57.009Z,4.70
2022-08-21T03:28:53.213Z,5.00
2022-08-21T03:29:53.206Z,5.00
2022-08-21T03:30:53.207Z,5.20
2022-08-21T03:31:53.202Z,6.10
2022-08-21T03:32:53.202Z,6.00
2022-08-21T03:33:53.196Z,6.00
2022-08-21T03:34:53.191Z,5.90
2022-08-21T03:35:53.188Z,6.60
2022-08-21T03:36:53.185Z,6.60
2022-08-21T03:37:53.181Z,6.40
2022-08-21T03:38:53.176Z,6.50
2022-08-21T03:39:53.212Z,6.60
2022-08-21T03:40:53.172Z,6.80
2022-08-21T03:41:53.166Z,6.30
2022-08-21T03:42:53.167Z,7.10
2022-08-21T03:43:53.162Z,6.40
2022-08-21T03:44:53.158Z,6.70
2022-08-21T03:45:53.150Z,6.40
2022-08-21T03:46:53.151Z,6.90
2022-08-21T03:47:53.144Z,6.90
2022-08-21T03:48:53.144Z,7.00
2022-08-21T03:49:53.138Z,7.00
2022-08-21T03:50:53.134Z,6.90
2022-08-21T03:51:55.563Z,7.50
2022-08-21T03:52:53.127Z,7.40
2022-08-21T03:53:53.121Z,7.40
2022-08-21T03:54:53.119Z,7.10
2022-08-21T03:55:53.112Z,7.10
2022-08-21T03:56:53.110Z,7.50
2022-08-21T03:57:53.109Z,8.00
2022-08-21T03:58:53.103Z,7.60
2022-08-21T03:59:53.103Z,8.20
2022-08-21T04:00:53.097Z,8.40
2022-08-21T04:01:53.142Z,8.10
2022-08-21T04:02:53.092Z,8.80
2022-08-21T04:03:53.084Z,8.30
2022-08-21T04:04:53.083Z,8.30
2022-08-21T04:05:53.076Z,8.40
2022-08-21T04:06:53.074Z,8.60
2022-08-21T04:07:53.086Z,8.60
2022-08-21T04:08:53.067Z,8.50
2022-08-21T04:09:53.061Z,8.50
2022-08-21T04:10:53.056Z,7.80
2022-08-21T04:11:53.055Z,8.10
2022-08-21T04:12:53.064Z,8.40
2022-08-21T04:13:53.047Z,7.80
2022-08-21T04:14:53.044Z,7.50
2022-08-21T04:15:53.039Z,7.70
2022-08-21T04:16:53.037Z,8.10
2022-08-21T04:17:53.030Z,7.40
2022-08-21T04:18:53.028Z,7.50
2022-08-21T04:19:53.965Z,6.80
2022-08-21T04:20:53.023Z,7.10
2022-08-21T04:21:53.018Z,6.90
2022-08-21T04:22:53.015Z,6.60
2022-08-21T04:23:53.008Z,6.50
2022-08-21T04:24:53.028Z,6.80
2022-08-21T04:25:53.002Z,6.50
2022-08-21T04:26:52.997Z,6.80
2022-08-21T04:27:52.992Z,6.70
2022-08-21T04:28:52.986Z,6.80
2022-08-21T04:29:52.985Z,6.90
2022-08-21T04:30:53.190Z,6.90
2022-08-21T04:31:52.978Z,6.50
2022-08-21T04:32:52.976Z,6.30
2022-08-21T04:33:52.968Z,6.20
2022-08-21T04:34:52.985Z,6.20
2022-08-21T04:35:52.961Z,5.70
2022-08-21T04:36:52.962Z,5.90
2022-08-21T04:37:52.956Z,5.70
2022-08-21T04:38:52.951Z,5.80
2022-08-21T04:39:53.620Z,5.70
2022-08-21T04:40:52.951Z,5.30
2022-08-21T04:41:52.938Z,5.20
2022-08-21T04:42:52.936Z,5.10
2022-08-21T04:43:52.934Z,4.90
2022-08-21T04:44:52.932Z,4.80
2022-08-21T04:45:52.922Z,4.50
2022-08-21T04:46:52.922Z,4.30
2022-08-21T04:47:53.485Z,4.50
2022-08-21T04:48:52.917Z,4.40
2022-08-21T04:49:52.909Z,4.10
2022-08-21T04:50:52.904Z,4.30
2022-08-21T04:51:52.900Z,4.30
2022-08-21T04:52:52.897Z,4.40
2022-08-21T04:53:53.092Z,4.20
2022-08-21T04:54:54.913Z,4.20
2022-08-21T04:55:52.885Z,3.70
2022-08-21T04:56:52.903Z,4.10
2022-08-21T04:57:52.884Z,4.10
2022-08-21T04:58:52.873Z,4.10
2022-08-21T04:59:52.868Z,4.00
2022-08-21T05:00:52.866Z,4.10
2022-08-21T05:01:52.941Z,3.80
2022-08-21T05:02:52.854Z,4.00
2022-08-21T05:03:52.854Z,4.40
2022-08-21T05:04:52.847Z,4.10
2022-08-21T05:05:52.844Z,4.20
2022-08-21T05:06:52.842Z,4.10
2022-08-21T05:07:52.840Z,4.20
2022-08-21T05:08:52.833Z,4.40
2022-08-21T05:09:52.829Z,4.00
2022-08-21T05:10:55.906Z,4.10
2022-08-21T05:11:52.826Z,4.30
2022-08-21T05:12:52.834Z,4.10
2022-08-21T05:13:57.489Z,4.60
2022-08-21T05:14:52.812Z,4.20
2022-08-21T05:15:52.807Z,4.10
2022-08-21T05:16:52.810Z,4.20
2022-08-21T05:18:00.562Z,4.10
2022-08-21T05:18:52.796Z,4.00
2022-08-21T05:19:52.793Z,4.10
2022-08-21T05:20:52.794Z,3.90
2022-08-21T05:21:52.785Z,4.10
2022-08-21T05:22:52.780Z,3.90
2022-08-21T05:23:52.777Z,4.00
2022-08-21T05:24:52.775Z,4.20
2022-08-21T05:25:52.770Z,4.40
2022-08-21T05:26:52.767Z,3.90
2022-08-21T05:27:52.762Z,4.30
2022-08-21T05:28:52.758Z,4.30
2022-08-21T05:29:52.756Z,4.50
2022-08-21T05:30:52.749Z,4.10
2022-08-21T05:31:52.745Z,4.30
2022-08-21T05:32:52.746Z,4.30
2022-08-21T05:33:52.743Z,4.50
2022-08-21T05:34:52.740Z,4.10
2022-08-21T05:35:52.733Z,4.40
2022-08-21T05:36:52.729Z,4.00
2022-08-21T05:37:59.893Z,4.50
2022-08-21T05:40:20.029Z,4.60
2022-08-21T05:40:45.682Z,4.40
2022-08-21T05:42:38.571Z,4.50
2022-08-21T05:43:38.548Z,4.70
2022-08-21T05:45:44.153Z,5.50
2022-08-21T05:46:42.525Z,5.50
2022-08-21T05:48:46.513Z,5.30
2022-08-21T05:49:46.510Z,5.60
2022-08-21T05:51:50.491Z,5.70
2022-08-21T05:52:50.479Z,5.70
2022-08-21T05:54:54.460Z,5.50
2022-08-21T05:55:54.447Z,5.90
2022-08-21T05:57:58.444Z,5.30
2022-08-21T05:58:58.421Z,5.70
2022-08-21T06:01:02.431Z,5.40
2022-08-21T06:02:05.515Z,5.20
2022-08-21T06:04:06.390Z,5.70
2022-08-21T06:05:06.366Z,5.30
2022-08-21T06:06:59.302Z,5.40
2022-08-21T06:07:59.285Z,5.60
2022-08-21T06:09:52.235Z,5.80
2022-08-21T06:10:52.219Z,5.60
2022-08-21T06:12:56.212Z,5.30
2022-08-21T06:13:56.208Z,5.10
2022-08-21T06:15:49.123Z,5.20
2022-08-21T06:16:49.109Z,5.10
2022-08-21T06:18:53.110Z,5.40
2022-08-21T06:19:53.101Z,5.10
2022-08-21T06:21:57.089Z,5.50
2022-08-21T06:22:57.202Z,5.00
2022-08-21T06:25:01.078Z,5.10
2022-08-21T06:26:01.047Z,5.20
2022-08-21T06:28:05.531Z,5.10
2022-08-21T06:29:05.655Z,5.50
2022-08-21T06:30:05.520Z,4.80
2022-08-21T06:31:05.515Z,4.50
2022-08-21T06:32:05.514Z,4.80
2022-08-21T06:33:05.568Z,5.10
2022-08-21T06:34:05.506Z,4.80
2022-08-21T06:35:05.504Z,4.50
2022-08-21T06:36:05.500Z,4.90
2022-08-21T06:37:05.497Z,4.60
2022-08-21T06:38:05.496Z,4.60
2022-08-21T06:39:16.612Z,4.50
2022-08-21T06:40:05.538Z,4.60
2022-08-21T06:41:05.486Z,4.60
2022-08-21T06:42:05.482Z,4.80
2022-08-21T06:43:05.478Z,4.50
2022-08-21T06:44:05.476Z,4.70
2022-08-21T06:45:05.474Z,4.20
2022-08-21T06:46:05.469Z,4.00
2022-08-21T06:47:05.467Z,4.30
2022-08-21T06:48:05.465Z,4.40
2022-08-21T06:49:05.462Z,4.30
2022-08-21T06:50:05.464Z,4.40
2022-08-21T06:51:05.457Z,4.10
2022-08-21T06:52:05.450Z,3.80
2022-08-21T06:53:05.453Z,3.80
2022-08-21T06:54:05.445Z,3.90
2022-08-21T06:55:05.441Z,4.20
2022-08-21T06:56:05.441Z,4.10
2022-08-21T06:57:05.439Z,4.00
2022-08-21T06:58:05.437Z,3.90
2022-08-21T06:59:05.432Z,4.00
2022-08-21T07:00:05.430Z,3.80
2022-08-21T07:01:05.515Z,3.90
2022-08-21T07:02:05.426Z,3.90
2022-08-21T07:03:05.443Z,3.80
2022-08-21T07:04:05.420Z,3.70
2022-08-21T07:05:11.800Z,3.80
2022-08-21T07:06:05.420Z,3.90
2022-08-21T07:07:05.415Z,3.90
2022-08-21T07:08:05.421Z,3.90
2022-08-21T07:09:05.406Z,3.50
2022-08-21T07:10:05.406Z,3.50
2022-08-21T07:11:05.410Z,3.00
2022-08-21T07:12:05.412Z,3.00
2022-08-21T07:13:05.618Z,3.50
2022-08-21T07:14:05.399Z,3.30
2022-08-21T07:15:05.395Z,3.00
2022-08-21T07:16:05.396Z,3.00
2022-08-21T07:17:05.391Z,2.90
2022-08-21T07:18:05.387Z,3.00
2022-08-21T07:19:05.387Z,2.50
2022-08-21T07:20:05.384Z,2.50
2022-08-21T07:21:05.384Z,2.40
2022-08-21T07:22:05.382Z,2.30
2022-08-21T07:23:05.376Z,2.60
2022-08-21T07:24:05.375Z,2.40
2022-08-21T07:25:05.375Z,2.30
2022-08-21T07:26:05.369Z,2.60
2022-08-21T07:27:09.779Z,2.30
2022-08-21T07:28:05.377Z,2.00
2022-08-21T07:29:05.374Z,2.10
2022-08-21T07:30:05.370Z,2.10
2022-08-21T07:31:05.374Z,2.10
2022-08-21T07:32:05.365Z,2.20
2022-08-21T07:33:05.365Z,2.10
2022-08-21T07:34:05.366Z,1.80
2022-08-21T07:35:05.362Z,1.90
2022-08-21T07:36:05.360Z,1.50
2022-08-21T07:37:06.305Z,1.80
2022-08-21T07:38:05.357Z,2.00
2022-08-21T07:39:05.352Z,1.80
2022-08-21T07:40:05.403Z,1.70
2022-08-21T07:41:05.357Z,1.80
2022-08-21T07:42:08.398Z,1.50
2022-08-21T07:43:05.358Z,1.50
2022-08-21T07:44:06.573Z,1.60
2022-08-21T07:45:05.351Z,1.60
2022-08-21T07:46:05.350Z,1.50
2022-08-21T07:47:05.356Z,1.40
2022-08-21T07:48:05.344Z,1.50
2022-08-21T07:49:05.356Z,1.60
2022-08-21T07:50:05.354Z,1.40
2022-08-21T07:51:05.348Z,1.60
2022-08-21T07:52:05.347Z,1.30
2022-08-21T07:53:05.344Z,1.50
2022-08-21T07:54:05.352Z,1.20
2022-08-21T07:55:06.505Z,1.50
2022-08-21T07:56:05.337Z,1.30
2022-08-21T07:57:05.338Z,1.40
2022-08-21T07:58:05.339Z,1.50
2022-08-21T07:59:05.335Z,1.20
2022-08-21T08:00:05.336Z,1.40
2022-08-21T08:01:05.355Z,1.40
2022-08-21T08:02:05.332Z,1.20
2022-08-21T08:03:05.332Z,1.40
2022-08-21T08:04:05.330Z,1.20
2022-08-21T08:05:05.331Z,1.20
2022-08-21T08:06:05.336Z,1.20
2022-08-21T08:07:05.323Z,1.20
2022-08-21T08:08:05.332Z,1.30
2022-08-21T08:09:05.323Z,1.30
2022-08-21T08:10:05.322Z,1.30
2022-08-21T08:11:05.322Z,1.20
2022-08-21T08:12:05.324Z,1.20
2022-08-21T08:13:05.320Z,1.10
2022-08-21T08:14:05.316Z,1.10
2022-08-21T08:15:05.320Z,1.20
2022-08-21T08:16:05.311Z,1.20
2022-08-21T08:17:05.313Z,1.30
2022-08-21T08:18:05.314Z,1.30
2022-08-21T08:19:05.309Z,1.20
2022-08-21T08:20:05.317Z,1.20
2022-08-21T08:21:05.313Z,1.10
2022-08-21T08:22:05.307Z,1.30
2022-08-21T08:23:05.306Z,1.20
2022-08-21T08:24:19.050Z,1.20
2022-08-21T08:25:09.287Z,1.30
2022-08-21T08:26:05.301Z,1.40
2022-08-21T08:27:05.299Z,1.20
2022-08-21T08:28:16.406Z,1.20
2022-08-21T08:29:05.295Z,1.40
2022-08-21T08:30:05.305Z,1.40
2022-08-21T08:31:05.295Z,1.40
2022-08-21T08:32:05.291Z,1.40
2022-08-21T08:33:05.299Z,1.30
2022-08-21T08:34:05.290Z,1.40
2022-08-21T08:35:05.290Z,1.30
2022-08-21T08:36:08.144Z,1.30
2022-08-21T08:37:05.287Z,1.30
2022-08-21T08:38:05.282Z,1.40
2022-08-21T08:39:05.283Z,1.30
2022-08-21T08:40:05.521Z,1.40
2022-08-21T08:41:05.280Z,1.30
2022-08-21T08:42:33.140Z,1.40
2022-08-21T08:43:05.278Z,1.20
2022-08-21T08:44:05.314Z,1.50
2022-08-21T08:45:05.280Z,1.30
2022-08-21T08:46:05.275Z,1.30
2022-08-21T08:47:05.273Z,1.20
2022-08-21T08:48:05.277Z,1.20
2022-08-21T08:49:05.276Z,1.30
2022-08-21T08:50:05.271Z,1.30
2022-08-21T08:51:05.266Z,1.20
2022-08-21T08:52:05.265Z,1.40
2022-08-21T08:53:05.956Z,1.30
2022-08-21T08:54:05.269Z,1.30
2022-08-21T08:55:05.261Z,1.30
2022-08-21T08:56:05.294Z,1.50
2022-08-21T08:57:05.260Z,1.20
2022-08-21T08:58:05.265Z,1.20
2022-08-21T08:59:05.256Z,1.40
2022-08-21T09:00:05.265Z,1.20
2022-08-21T09:01:05.285Z,1.30
2022-08-21T09:02:05.259Z,1.40
2022-08-21T09:03:05.251Z,1.40
2022-08-21T09:04:05.251Z,1.30
2022-08-21T09:05:05.252Z,1.20
2022-08-21T09:06:05.250Z,1.40
2022-08-21T09:07:05.253Z,1.40
2022-08-21T09:08:05.249Z,1.40
2022-08-21T09:09:05.244Z,1.40
2022-08-21T09:10:05.247Z,1.50
2022-08-21T09:11:05.242Z,1.50
2022-08-21T09:12:05.240Z,1.50
2022-08-21T09:13:05.243Z,1.40
2022-08-21T09:14:05.240Z,1.60
2022-08-21T09:15:05.237Z,1.40
2022-08-21T09:16:05.238Z,1.40
2022-08-21T09:17:05.234Z,1.50
2022-08-21T09:18:07.623Z,1.50
2022-08-21T09:19:05.231Z,1.40
2022-08-21T09:20:05.234Z,1.50
2022-08-21T09:21:05.232Z,1.50
2022-08-21T09:22:05.231Z,1.40
2022-08-21T09:23:05.228Z,1.30
2022-08-21T09:24:05.227Z,1.20
2022-08-21T09:25:05.226Z,1.40
2022-08-21T09:26:05.229Z,1.40
2022-08-21T09:27:05.219Z,1.40
2022-08-21T09:28:05.220Z,1.40
2022-08-21T09:29:05.220Z,1.30
2022-08-21T09:30:05.223Z,1.40
2022-08-21T09:31:05.221Z,1.60
2022-08-21T09:32:05.225Z,1.60
2022-08-21T09:33:05.227Z,1.30
2022-08-21T09:34:05.217Z,1.50
2022-08-21T09:35:05.218Z,1.50
2022-08-21T09:36:05.215Z,1.40
2022-08-21T09:37:05.215Z,1.40
2022-08-21T09:38:05.218Z,1.40
2022-08-21T09:39:05.214Z,1.30
2022-08-21T09:40:05.251Z,1.50
2022-08-21T09:41:05.210Z,1.40
2022-08-21T09:42:05.211Z,1.30
2022-08-21T09:43:05.217Z,1.60
2022-08-21T09:44:05.210Z,1.40
2022-08-21T09:45:05.212Z,1.50
2022-08-21T09:46:05.206Z,1.50
2022-08-21T09:47:05.207Z,1.60
2022-08-21T09:48:05.202Z,1.30
2022-08-21T09:49:06.788Z,1.30
2022-08-21T09:50:05.205Z,1.20
2022-08-21T09:51:05.204Z,1.40
2022-08-21T09:52:05.211Z,1.40
2022-08-21T09:53:05.203Z,1.40
2022-08-21T09:54:05.203Z,1.20
2022-08-21T09:55:05.200Z,1.40
2022-08-21T09:56:05.206Z,1.50
2022-08-21T09:57:05.199Z,1.50
2022-08-21T09:58:05.202Z,1.40
2022-08-21T09:59:05.204Z,1.50
2022-08-21T10:00:05.195Z,1.40
2022-08-21T10:01:05.254Z,1.30
2022-08-21T10:02:05.203Z,1.20
2022-08-21T10:03:05.209Z,1.30
2022-08-21T10:04:05.196Z,1.20
2022-08-21T10:05:05.198Z,1.30
2022-08-21T10:06:05.200Z,1.60
2022-08-21T10:07:05.194Z,1.30
2022-08-21T10:08:05.193Z,1.50
2022-08-21T10:09:05.196Z,1.30
2022-08-21T10:10:05.193Z,1.30
2022-08-21T10:11:05.193Z,1.40
2022-08-21T10:12:05.195Z,1.40
2022-08-21T10:13:05.193Z,1.40
2022-08-21T10:14:05.193Z,1.60
2022-08-21T10:15:08.415Z,1.30
2022-08-21T10:16:05.192Z,1.60
2022-08-21T10:17:05.199Z,1.40
2022-08-21T10:18:05.194Z,1.30
2022-08-21T10:19:05.189Z,1.40
2022-08-21T10:20:05.190Z,1.20
2022-08-21T10:21:07.292Z,1.40
2022-08-21T10:22:05.191Z,1.40
2022-08-21T10:23:05.219Z,1.30
2022-08-21T10:24:05.188Z,1.30
2022-08-21T10:25:05.197Z,1.20
2022-08-21T10:26:13.342Z,1.30
2022-08-21T10:27:05.190Z,1.30
2022-08-21T10:28:05.191Z,1.10
2022-08-21T10:29:05.189Z,1.20
2022-08-21T10:30:05.194Z,1.20
2022-08-21T10:31:05.190Z,1.20
2022-08-21T10:32:05.190Z,1.10
2022-08-21T10:33:05.194Z,1.30
2022-08-21T10:34:05.205Z,1.00
2022-08-21T10:35:05.187Z,1.20
2022-08-21T10:36:05.189Z,1.30
2022-08-21T10:37:10.625Z,1.10
2022-08-21T10:38:05.190Z,1.20
2022-08-21T10:39:26.018Z,1.50
2022-08-21T10:40:05.231Z,1.40
2022-08-21T10:41:05.189Z,1.40
2022-08-21T10:42:05.203Z,1.40
2022-08-21T10:43:05.191Z,1.30
2022-08-21T10:44:05.191Z,1.40
2022-08-21T10:45:05.215Z,1.70
2022-08-21T10:46:05.189Z,1.70
2022-08-21T10:47:05.185Z,1.50
2022-08-21T10:48:05.195Z,1.60
2022-08-21T10:49:05.196Z,1.70
2022-08-21T10:50:05.187Z,1.30
2022-08-21T10:51:05.189Z,1.10
2022-08-21T10:52:05.191Z,0.80
2022-08-21T10:53:05.195Z,1.10
2022-08-21T10:54:05.191Z,1.00
2022-08-21T10:55:05.191Z,1.00
2022-08-21T10:56:05.194Z,1.20
2022-08-21T10:57:05.192Z,1.00
2022-08-21T10:58:05.193Z,1.10
2022-08-21T10:59:05.194Z,1.10
2022-08-21T11:00:05.195Z,1.00
2022-08-21T11:01:05.272Z,1.10
2022-08-21T11:02:05.191Z,1.10
2022-08-21T11:03:05.201Z,1.30
2022-08-21T11:04:05.193Z,1.30
2022-08-21T11:05:05.188Z,1.20
2022-08-21T11:06:05.189Z,1.20
2022-08-21T11:07:09.210Z,1.20
2022-08-21T11:08:05.190Z,1.10
2022-08-21T11:09:05.191Z,1.00
2022-08-21T11:10:05.196Z,1.40
2022-08-21T11:11:05.191Z,1.10
2022-08-21T11:12:11.405Z,1.10
2022-08-21T11:13:05.189Z,1.20
2022-08-21T11:14:05.192Z,1.10
2022-08-21T11:15:05.191Z,1.10
2022-08-21T11:16:05.197Z,1.00
2022-08-21T11:17:05.193Z,0.90
2022-08-21T11:18:05.200Z,0.80
2022-08-21T11:19:05.191Z,0.80
2022-08-21T11:20:05.195Z,0.90
2022-08-21T11:21:05.194Z,1.00
2022-08-21T11:22:05.191Z,0.90
2022-08-21T11:23:05.568Z,0.70
2022-08-21T11:24:05.720Z,0.90
2022-08-21T11:25:05.195Z,0.80
2022-08-21T11:26:05.193Z,0.80
2022-08-21T11:27:05.191Z,0.80
2022-08-21T11:28:05.195Z,0.80
2022-08-21T11:29:05.194Z,0.90
2022-08-21T11:30:05.194Z,0.80
2022-08-21T11:31:05.194Z,0.90
2022-08-21T11:32:05.195Z,0.70
2022-08-21T11:33:05.197Z,0.80
2022-08-21T11:34:05.201Z,0.80
2022-08-21T11:35:05.195Z,0.80
2022-08-21T11:36:05.249Z,0.80
2022-08-21T11:37:05.195Z,0.80
2022-08-21T11:38:05.197Z,0.90
2022-08-21T11:39:05.196Z,0.90
2022-08-21T11:40:05.228Z,0.80
2022-08-21T11:41:05.199Z,0.90
2022-08-21T11:42:08.850Z,0.80
2022-08-21T11:43:05.198Z,0.80
2022-08-21T11:44:05.198Z,0.80
2022-08-21T11:45:05.199Z,0.70
2022-08-21T11:46:05.199Z,0.70
2022-08-21T11:47:05.198Z,0.90
2022-08-21T11:48:05.201Z,0.80
2022-08-21T11:49:05.203Z,0.90
2022-08-21T11:50:05.202Z,0.90
2022-08-21T11:51:05.214Z,0.80
2022-08-21T11:52:05.197Z,0.90
2022-08-21T11:53:05.201Z,1.00
2022-08-21T11:54:07.349Z,1.00
2022-08-21T11:55:05.201Z,1.00
2022-08-21T11:56:05.207Z,0.80
2022-08-21T11:57:05.202Z,0.70
2022-08-21T11:58:05.204Z,0.80
2022-08-21T11:59:05.203Z,1.20
2022-08-21T12:00:05.211Z,0.90
2022-08-21T12:01:05.203Z,0.90
2022-08-21T12:02:13.965Z,0.80
2022-08-21T12:03:58.816Z,0.90
2022-08-21T12:04:58.809Z,0.90
2022-08-21T12:05:58.806Z,0.90
2022-08-21T12:06:58.804Z,0.70
2022-08-21T12:08:00.986Z,0.90
2022-08-21T12:08:58.807Z,0.80
2022-08-21T12:09:58.808Z,0.90
2022-08-21T12:10:58.807Z,0.80
2022-08-21T12:11:58.806Z,0.80
2022-08-21T12:12:58.964Z,0.80
2022-08-21T12:13:58.809Z,1.00
2022-08-21T12:14:58.808Z,1.10
2022-08-21T12:15:58.808Z,0.80
2022-08-21T12:16:58.807Z,0.90
2022-08-21T12:17:58.808Z,0.90
2022-08-21T12:18:58.816Z,1.30
2022-08-21T12:19:58.810Z,1.00
2022-08-21T12:20:58.809Z,0.80
2022-08-21T12:21:58.809Z,0.80
2022-08-21T12:22:59.037Z,0.90
2022-08-21T12:23:58.810Z,0.90
2022-08-21T12:24:58.810Z,0.90
2022-08-21T12:25:58.821Z,0.90
2022-08-21T12:26:58.808Z,0.90
2022-08-21T12:27:58.812Z,0.80
2022-08-21T12:28:58.810Z,0.90
2022-08-21T12:29:58.810Z,0.90
2022-08-21T12:30:58.809Z,0.90
2022-08-21T12:31:58.811Z,1.10
2022-08-21T12:32:58.975Z,1.10
2022-08-21T12:33:58.809Z,1.10
2022-08-21T12:34:58.808Z,1.10
2022-08-21T12:35:58.825Z,1.10
2022-08-21T12:36:58.813Z,0.90
2022-08-21T12:37:58.812Z,1.00
2022-08-21T12:38:58.811Z,1.10
2022-08-21T12:39:58.847Z,1.00
2022-08-21T12:40:58.814Z,1.00
2022-08-21T12:42:01.763Z,1.00
2022-08-21T12:42:59.322Z,1.10
2022-08-21T12:43:58.830Z,1.20
2022-08-21T12:44:58.814Z,1.00
2022-08-21T12:45:58.816Z,1.10
2022-08-21T12:46:58.814Z,0.90
2022-08-21T12:47:58.813Z,0.70
2022-08-21T12:48:58.815Z,0.80
2022-08-21T12:49:58.815Z,1.00
2022-08-21T12:50:58.817Z,1.10
2022-08-21T12:51:58.815Z,1.00
2022-08-21T12:52:58.924Z,0.90
2022-08-21T12:53:58.816Z,0.90
2022-08-21T12:54:58.819Z,0.90
2022-08-21T12:55:58.819Z,0.90
2022-08-21T12:56:58.814Z,0.90
2022-08-21T12:57:58.819Z,1.00
2022-08-21T12:58:58.817Z,0.80
2022-08-21T12:59:58.816Z,0.90
2022-08-21T13:00:58.816Z,0.80
2022-08-21T13:01:58.881Z,0.90
2022-08-21T13:02:58.999Z,1.00
2022-08-21T13:04:04.490Z,1.00
2022-08-21T13:04:58.816Z,1.00
2022-08-21T13:05:58.822Z,1.10
2022-08-21T13:06:58.817Z,1.00
2022-08-21T13:07:58.816Z,1.10
2022-08-21T13:08:58.817Z,1.00
2022-08-21T13:09:58.816Z,0.90
2022-08-21T13:10:58.828Z,1.10
2022-08-21T13:11:58.818Z,1.20
2022-08-21T13:12:58.982Z,1.10
2022-08-21T13:14:02.869Z,1.20
2022-08-21T13:14:58.816Z,1.00
2022-08-21T13:15:58.820Z,1.10
2022-08-21T13:16:58.818Z,1.20
2022-08-21T13:17:58.818Z,1.50
2022-08-21T13:18:58.819Z,1.30
2022-08-21T13:19:58.818Z,1.20
2022-08-21T13:20:58.817Z,1.30
2022-08-21T13:21:58.818Z,1.20
2022-08-21T13:22:58.938Z,1.40
2022-08-21T13:23:58.823Z,1.30
2022-08-21T13:24:58.821Z,1.40
2022-08-21T13:25:58.819Z,1.30
2022-08-21T13:26:58.819Z,1.20
2022-08-21T13:27:58.819Z,1.30
2022-08-21T13:28:58.820Z,1.30
2022-08-21T13:29:58.820Z,1.20
2022-08-21T13:30:58.823Z,1.20
2022-08-21T13:31:58.814Z,1.20
2022-08-21T13:32:58.960Z,1.20
2022-08-21T13:33:58.822Z,1.30
2022-08-21T13:34:58.824Z,1.30
2022-08-21T13:35:58.824Z,1.40
2022-08-21T13:36:58.828Z,1.30
2022-08-21T13:37:58.821Z,1.50
2022-08-21T13:38:58.821Z,1.40
2022-08-21T13:39:58.871Z,1.30